LAP1324 SGAS-SCEL
Flight info
| Callsign | LAP1324 |
|---|---|
| Flight time | 2h 11m |
| Altitude | 36000 |
| Route | ARPAS ARPAS UM529 ISKUK/N0483F380 UM529 ASIMO ASIMO7D |
| Aircraft | B77W/H-SDE1E2E3FGHIJ2J3J4J5M1RWXY/LB1D1 |
Departure
| Time | 2026-05-07 00:24 |
|---|---|
| Airport | Silvio Pettirossi International Airport (SGAS) |
Arrival
| Time | 2026-05-07 02:36 |
|---|---|
| Airport | Comodoro Arturo Merino Benítez International Airport (SCEL) |
| Time | Latitude | Longitude | Altitude | Speed | Heading |
|---|---|---|---|---|---|
| 2026-05-06 23:51 | -25.24231 | -57.51562 | 306 ft | 0 kts | 104° |
| 2026-05-07 00:14 | -25.24229 | -57.51569 | 306 ft | 2 kts | 104° |
| 2026-05-07 00:14 | -25.24226 | -57.51585 | 306 ft | 2 kts | 104° |
| 2026-05-07 00:14 | -25.24222 | -57.51601 | 306 ft | 2 kts | 104° |
| 2026-05-07 00:15 | -25.24218 | -57.51617 | 306 ft | 2 kts | 123° |
| 2026-05-07 00:15 | -25.24207 | -57.51629 | 306 ft | 2 kts | 147° |
| 2026-05-07 00:15 | -25.24194 | -57.51636 | 306 ft | 2 kts | 170° |
| 2026-05-07 00:15 | -25.24179 | -57.51636 | 306 ft | 1 kts | 192° |
| 2026-05-07 00:16 | -25.24174 | -57.51635 | 306 ft | 0 kts | 195° |
| 2026-05-07 00:16 | -25.24173 | -57.51635 | 306 ft | 0 kts | 195° |
| 2026-05-07 00:18 | -25.24175 | -57.51635 | 306 ft | 0 kts | 194° |
| 2026-05-07 00:18 | -25.24187 | -57.51637 | 306 ft | 2 kts | 187° |
| 2026-05-07 00:18 | -25.24213 | -57.51640 | 306 ft | 4 kts | 184° |
| 2026-05-07 00:19 | -25.24254 | -57.51645 | 306 ft | 6 kts | 189° |
| 2026-05-07 00:19 | -25.24307 | -57.51658 | 306 ft | 8 kts | 198° |
| 2026-05-07 00:19 | -25.24357 | -57.51702 | 306 ft | 10 kts | 232° |
| 2026-05-07 00:19 | -25.24401 | -57.51769 | 306 ft | 11 kts | 228° |
| 2026-05-07 00:20 | -25.24474 | -57.51811 | 306 ft | 12 kts | 198° |
| 2026-05-07 00:20 | -25.24561 | -57.51836 | 306 ft | 13 kts | 194° |
| 2026-05-07 00:20 | -25.24655 | -57.51860 | 306 ft | 14 kts | 192° |
| 2026-05-07 00:20 | -25.24757 | -57.51884 | 306 ft | 15 kts | 193° |
| 2026-05-07 00:21 | -25.24863 | -57.51910 | 306 ft | 15 kts | 192° |
| 2026-05-07 00:21 | -25.24972 | -57.51936 | 306 ft | 16 kts | 192° |
| 2026-05-07 00:21 | -25.25087 | -57.51964 | 306 ft | 17 kts | 193° |
| 2026-05-07 00:21 | -25.25205 | -57.51993 | 306 ft | 17 kts | 192° |
| 2026-05-07 00:22 | -25.25327 | -57.52023 | 306 ft | 18 kts | 193° |
| 2026-05-07 00:22 | -25.25441 | -57.52052 | 306 ft | 13 kts | 200° |
| 2026-05-07 00:22 | -25.25477 | -57.52120 | 306 ft | 11 kts | 268° |
| 2026-05-07 00:22 | -25.25466 | -57.52200 | 306 ft | 7 kts | 282° |
| 2026-05-07 00:23 | -25.25455 | -57.52236 | 306 ft | 3 kts | 304° |
| 2026-05-07 00:23 | -25.25431 | -57.52252 | 306 ft | 4 kts | 347° |
| 2026-05-07 00:23 | -25.25392 | -57.52251 | 306 ft | 6 kts | 6° |
| 2026-05-07 00:23 | -25.25238 | -57.52217 | 306 ft | 58 kts | 13° |
| 2026-05-07 00:24 | -25.24566 | -57.52054 | 306 ft | 137 kts | 13° |
| 2026-05-07 00:24 | -25.23440 | -57.51783 | 441 ft | 187 kts | 13° |
| 2026-05-07 00:24 | -25.22049 | -57.51454 | 731 ft | 227 kts | 12° |
| 2026-05-07 00:24 | -25.20479 | -57.51105 | 1966 ft | 224 kts | 12° |
| 2026-05-07 00:25 | -25.19148 | -57.50774 | 3327 ft | 197 kts | 12° |
| 2026-05-07 00:25 | -25.17756 | -57.50444 | 3774 ft | 213 kts | 6° |
| 2026-05-07 00:25 | -25.16222 | -57.50634 | 4214 ft | 232 kts | 343° |
| 2026-05-07 00:25 | -25.14866 | -57.51646 | 4846 ft | 249 kts | 317° |
| 2026-05-07 00:26 | -25.14061 | -57.53381 | 5568 ft | 269 kts | 289° |
| 2026-05-07 00:26 | -25.14171 | -57.55490 | 6234 ft | 294 kts | 257° |
| 2026-05-07 00:26 | -25.15358 | -57.57384 | 6957 ft | 311 kts | 224° |
| 2026-05-07 00:26 | -25.17234 | -57.58604 | 7781 ft | 314 kts | 210° |
| 2026-05-07 00:27 | -25.19210 | -57.59639 | 8506 ft | 315 kts | 209° |
| 2026-05-07 00:27 | -25.21188 | -57.60657 | 9238 ft | 315 kts | 210° |
| 2026-05-07 00:27 | -25.23156 | -57.61670 | 9977 ft | 315 kts | 209° |
| 2026-05-07 00:27 | -25.25200 | -57.62725 | 10426 ft | 327 kts | 210° |
| 2026-05-07 00:28 | -25.27288 | -57.63805 | 10802 ft | 342 kts | 209° |
| 2026-05-07 00:28 | -25.29509 | -57.64953 | 11163 ft | 357 kts | 209° |
| 2026-05-07 00:28 | -25.31786 | -57.66130 | 11494 ft | 371 kts | 209° |
| 2026-05-07 00:28 | -25.34194 | -57.67374 | 11856 ft | 385 kts | 208° |
| 2026-05-07 00:29 | -25.36647 | -57.68641 | 12159 ft | 398 kts | 208° |
| 2026-05-07 00:29 | -25.39201 | -57.69959 | 12643 ft | 404 kts | 208° |
| 2026-05-07 00:30 | -25.46863 | -57.73914 | 14653 ft | 409 kts | 208° |
| 2026-05-07 00:30 | -25.49440 | -57.75245 | 15230 ft | 412 kts | 208° |
| 2026-05-07 00:30 | -25.52048 | -57.76593 | 15838 ft | 415 kts | 208° |
| 2026-05-07 00:30 | -25.54657 | -57.77942 | 16486 ft | 417 kts | 208° |
| 2026-05-07 00:31 | -25.57294 | -57.79306 | 17142 ft | 418 kts | 208° |
| 2026-05-07 00:31 | -25.59954 | -57.80683 | 17768 ft | 421 kts | 208° |
| 2026-05-07 00:31 | -25.62588 | -57.82046 | 18362 ft | 423 kts | 208° |
| 2026-05-07 00:31 | -25.65266 | -57.83434 | 18948 ft | 426 kts | 208° |
| 2026-05-07 00:32 | -25.67967 | -57.84833 | 19535 ft | 429 kts | 208° |
| 2026-05-07 00:32 | -25.70697 | -57.86248 | 20097 ft | 432 kts | 208° |
| 2026-05-07 00:32 | -25.73394 | -57.87741 | 20678 ft | 431 kts | 214° |
| 2026-05-07 00:32 | -25.75926 | -57.89518 | 21215 ft | 433 kts | 217° |
| 2026-05-07 00:33 | -25.78455 | -57.91358 | 21795 ft | 435 kts | 217° |
| 2026-05-07 00:33 | -25.80981 | -57.93200 | 22400 ft | 436 kts | 217° |
| 2026-05-07 00:33 | -25.83502 | -57.95038 | 22989 ft | 437 kts | 217° |
| 2026-05-07 00:33 | -25.86055 | -57.96899 | 23462 ft | 441 kts | 217° |
| 2026-05-07 00:34 | -25.88627 | -57.98775 | 23957 ft | 444 kts | 217° |
| 2026-05-07 00:34 | -25.91219 | -58.00666 | 24487 ft | 446 kts | 218° |
| 2026-05-07 00:34 | -25.93826 | -58.02567 | 25039 ft | 447 kts | 218° |
| 2026-05-07 00:34 | -25.96421 | -58.04462 | 25532 ft | 449 kts | 218° |
| 2026-05-07 00:35 | -25.99027 | -58.06365 | 25990 ft | 452 kts | 218° |
| 2026-05-07 00:35 | -26.01668 | -58.08295 | 26402 ft | 455 kts | 218° |
| 2026-05-07 00:35 | -26.04313 | -58.10229 | 26830 ft | 457 kts | 219° |
| 2026-05-07 00:35 | -26.06985 | -58.12183 | 27244 ft | 460 kts | 219° |
| 2026-05-07 00:36 | -26.09647 | -58.14131 | 27653 ft | 462 kts | 219° |
| 2026-05-07 00:36 | -26.12361 | -58.16119 | 28026 ft | 465 kts | 219° |
| 2026-05-07 00:36 | -26.15049 | -58.18088 | 28398 ft | 467 kts | 219° |
| 2026-05-07 00:36 | -26.17774 | -58.20085 | 28814 ft | 468 kts | 220° |
| 2026-05-07 00:37 | -26.20526 | -58.22102 | 29220 ft | 470 kts | 220° |
| 2026-05-07 00:37 | -26.23282 | -58.24053 | 29607 ft | 474 kts | 217° |
| 2026-05-07 00:37 | -26.26125 | -58.25932 | 30043 ft | 475 kts | 217° |
| 2026-05-07 00:37 | -26.28964 | -58.27801 | 30546 ft | 473 kts | 217° |
| 2026-05-07 00:38 | -26.31787 | -58.29664 | 31109 ft | 470 kts | 218° |
| 2026-05-07 00:38 | -26.34593 | -58.31520 | 31729 ft | 466 kts | 218° |
| 2026-05-07 00:38 | -26.37380 | -58.33369 | 32344 ft | 462 kts | 218° |
| 2026-05-07 00:38 | -26.40125 | -58.35193 | 32862 ft | 459 kts | 218° |
| 2026-05-07 00:39 | -26.42887 | -58.37032 | 33387 ft | 457 kts | 218° |
| 2026-05-07 00:39 | -26.45605 | -58.38844 | 33935 ft | 455 kts | 218° |
| 2026-05-07 00:39 | -26.48338 | -58.40667 | 34600 ft | 451 kts | 218° |
| 2026-05-07 00:39 | -26.50999 | -58.42443 | 35211 ft | 447 kts | 218° |
| 2026-05-07 00:40 | -26.53661 | -58.44222 | 35684 ft | 445 kts | 219° |
| 2026-05-07 00:40 | -26.56331 | -58.46009 | 36074 ft | 444 kts | 219° |
| 2026-05-07 00:40 | -26.58991 | -58.47790 | 36482 ft | 443 kts | 219° |
| 2026-05-07 00:40 | -26.61616 | -58.49549 | 36780 ft | 443 kts | 219° |
| 2026-05-07 00:41 | -26.64261 | -58.51322 | 37054 ft | 442 kts | 219° |
| 2026-05-07 00:41 | -26.66925 | -58.53108 | 37360 ft | 442 kts | 219° |
| 2026-05-07 00:41 | -26.69533 | -58.54858 | 37647 ft | 441 kts | 219° |
| 2026-05-07 00:41 | -26.72165 | -58.56625 | 37790 ft | 441 kts | 219° |
| 2026-05-07 00:42 | -26.77417 | -58.60153 | 37782 ft | 438 kts | 219° |
| 2026-05-07 00:42 | -26.82681 | -58.63694 | 37771 ft | 438 kts | 219° |
| 2026-05-07 00:43 | -26.87880 | -58.67195 | 37790 ft | 437 kts | 220° |
| 2026-05-07 00:43 | -26.93104 | -58.70718 | 37795 ft | 440 kts | 220° |
| 2026-05-07 00:44 | -26.98326 | -58.74240 | 37791 ft | 436 kts | 220° |
| 2026-05-07 00:44 | -27.03556 | -58.77775 | 37789 ft | 439 kts | 220° |
| 2026-05-07 00:45 | -27.08782 | -58.81310 | 37789 ft | 437 kts | 220° |
| 2026-05-07 00:45 | -27.13976 | -58.84827 | 37781 ft | 435 kts | 220° |
| 2026-05-07 00:46 | -27.19166 | -58.88347 | 37783 ft | 436 kts | 220° |
| 2026-05-07 00:46 | -27.24376 | -58.91884 | 37783 ft | 436 kts | 220° |
| 2026-05-07 00:47 | -27.29580 | -58.95420 | 37778 ft | 437 kts | 220° |
| 2026-05-07 00:47 | -27.34773 | -58.98953 | 37770 ft | 435 kts | 220° |
| 2026-05-07 00:48 | -27.39971 | -59.02492 | 37770 ft | 436 kts | 221° |
| 2026-05-07 00:48 | -27.44986 | -59.06225 | 37772 ft | 426 kts | 229° |
| 2026-05-07 00:49 | -27.49194 | -59.10813 | 37764 ft | 418 kts | 233° |
| 2026-05-07 00:49 | -27.53288 | -59.15476 | 37766 ft | 420 kts | 234° |
| 2026-05-07 00:50 | -27.57400 | -59.20160 | 37754 ft | 418 kts | 233° |
| 2026-05-07 00:50 | -27.61465 | -59.24795 | 37754 ft | 419 kts | 233° |
| 2026-05-07 00:51 | -27.65570 | -59.29482 | 37749 ft | 420 kts | 233° |
| 2026-05-07 00:51 | -27.69676 | -59.34171 | 37748 ft | 418 kts | 234° |
| 2026-05-07 00:52 | -27.73765 | -59.38849 | 37742 ft | 420 kts | 234° |
| 2026-05-07 00:52 | -27.77884 | -59.43564 | 37741 ft | 417 kts | 233° |
| 2026-05-07 00:53 | -27.81934 | -59.48207 | 37752 ft | 417 kts | 234° |
| 2026-05-07 00:53 | -27.86039 | -59.52920 | 37747 ft | 421 kts | 233° |
| 2026-05-07 00:54 | -27.90133 | -59.57623 | 37742 ft | 420 kts | 234° |
| 2026-05-07 00:54 | -27.94223 | -59.62327 | 37739 ft | 418 kts | 234° |
| 2026-05-07 00:55 | -27.98287 | -59.67007 | 37753 ft | 419 kts | 234° |
| 2026-05-07 00:55 | -28.02365 | -59.71709 | 37739 ft | 419 kts | 234° |
| 2026-05-07 00:56 | -28.06467 | -59.76445 | 37744 ft | 420 kts | 234° |
| 2026-05-07 00:56 | -28.10573 | -59.81195 | 37746 ft | 422 kts | 234° |
| 2026-05-07 00:57 | -28.14632 | -59.85938 | 37735 ft | 417 kts | 235° |
| 2026-05-07 00:57 | -28.18694 | -59.90696 | 37733 ft | 421 kts | 235° |
| 2026-05-07 00:58 | -28.22761 | -59.95462 | 37727 ft | 420 kts | 235° |
| 2026-05-07 00:58 | -28.26829 | -60.00235 | 37725 ft | 423 kts | 235° |
| 2026-05-07 00:59 | -28.33002 | -60.07491 | 37718 ft | 431 kts | 235° |
| 2026-05-07 01:00 | -28.37195 | -60.12423 | 37719 ft | 437 kts | 235° |
| 2026-05-07 01:00 | -28.41427 | -60.17408 | 37719 ft | 441 kts | 236° |
| 2026-05-07 01:01 | -28.45678 | -60.22420 | 37718 ft | 444 kts | 235° |
| 2026-05-07 01:01 | -28.49963 | -60.27477 | 37706 ft | 446 kts | 236° |
| 2026-05-07 01:02 | -28.54279 | -60.32578 | 37706 ft | 446 kts | 236° |
| 2026-05-07 01:02 | -28.58581 | -60.37670 | 37696 ft | 447 kts | 236° |
| 2026-05-07 01:03 | -28.62861 | -60.42742 | 37695 ft | 447 kts | 236° |
| 2026-05-07 01:03 | -28.67153 | -60.47834 | 37697 ft | 447 kts | 236° |
| 2026-05-07 01:04 | -28.71457 | -60.52949 | 37686 ft | 447 kts | 236° |
| 2026-05-07 01:04 | -28.75772 | -60.58081 | 37679 ft | 447 kts | 236° |
| 2026-05-07 01:05 | -28.80059 | -60.63158 | 37673 ft | 447 kts | 236° |
| 2026-05-07 01:05 | -28.84393 | -60.68239 | 37691 ft | 447 kts | 236° |
| 2026-05-07 01:06 | -28.88732 | -60.73336 | 37694 ft | 448 kts | 236° |
| 2026-05-07 01:06 | -28.93057 | -60.78424 | 37688 ft | 447 kts | 237° |
| 2026-05-07 01:07 | -28.97358 | -60.83492 | 37683 ft | 448 kts | 237° |
| 2026-05-07 01:07 | -29.01701 | -60.88616 | 37686 ft | 448 kts | 237° |
| 2026-05-07 01:08 | -29.06047 | -60.93752 | 37677 ft | 448 kts | 237° |
| 2026-05-07 01:08 | -29.10389 | -60.98886 | 37669 ft | 446 kts | 237° |
| 2026-05-07 01:09 | -29.14652 | -61.03998 | 37667 ft | 445 kts | 237° |
| 2026-05-07 01:09 | -29.18924 | -61.09154 | 37673 ft | 446 kts | 237° |
| 2026-05-07 01:10 | -29.23202 | -61.14319 | 37669 ft | 446 kts | 238° |
| 2026-05-07 01:10 | -29.27464 | -61.19471 | 37665 ft | 446 kts | 237° |
| 2026-05-07 01:11 | -29.31723 | -61.24623 | 37662 ft | 446 kts | 238° |
| 2026-05-07 01:11 | -29.35979 | -61.29780 | 37660 ft | 445 kts | 237° |
| 2026-05-07 01:12 | -29.40196 | -61.34894 | 37658 ft | 445 kts | 238° |
| 2026-05-07 01:12 | -29.44456 | -61.40069 | 37650 ft | 445 kts | 237° |
| 2026-05-07 01:13 | -29.48696 | -61.45224 | 37646 ft | 444 kts | 238° |
| 2026-05-07 01:13 | -29.52931 | -61.50382 | 37641 ft | 445 kts | 238° |
| 2026-05-07 01:14 | -29.57189 | -61.55575 | 37645 ft | 446 kts | 238° |
| 2026-05-07 01:14 | -29.61434 | -61.60757 | 37644 ft | 445 kts | 238° |
| 2026-05-07 01:15 | -29.65671 | -61.65937 | 37660 ft | 445 kts | 238° |
| 2026-05-07 01:15 | -29.69905 | -61.71120 | 37667 ft | 445 kts | 238° |
| 2026-05-07 01:16 | -29.74130 | -61.76297 | 37665 ft | 442 kts | 239° |
| 2026-05-07 01:16 | -29.78327 | -61.81450 | 37662 ft | 444 kts | 238° |
| 2026-05-07 01:17 | -29.82536 | -61.86621 | 37658 ft | 443 kts | 238° |
| 2026-05-07 01:17 | -29.86743 | -61.91809 | 37652 ft | 442 kts | 240° |
| 2026-05-07 01:18 | -29.90482 | -61.97352 | 37657 ft | 435 kts | 244° |
| 2026-05-07 01:18 | -29.94102 | -62.02922 | 37654 ft | 435 kts | 244° |
| 2026-05-07 01:19 | -29.97726 | -62.08506 | 37653 ft | 435 kts | 244° |
| 2026-05-07 01:19 | -30.01338 | -62.14076 | 37655 ft | 435 kts | 244° |
| 2026-05-07 01:20 | -30.04948 | -62.19650 | 37644 ft | 435 kts | 244° |
| 2026-05-07 01:20 | -30.08555 | -62.25227 | 37649 ft | 436 kts | 244° |
| 2026-05-07 01:21 | -30.12196 | -62.30864 | 37631 ft | 437 kts | 244° |
| 2026-05-07 01:21 | -30.15819 | -62.36482 | 37629 ft | 437 kts | 244° |
| 2026-05-07 01:22 | -30.19424 | -62.42078 | 37624 ft | 437 kts | 244° |
| 2026-05-07 01:22 | -30.23058 | -62.47728 | 37623 ft | 437 kts | 244° |
| 2026-05-07 01:23 | -30.26663 | -62.53341 | 37624 ft | 437 kts | 244° |
| 2026-05-07 01:23 | -30.30279 | -62.58979 | 37629 ft | 438 kts | 244° |
| 2026-05-07 01:24 | -30.33916 | -62.64657 | 37623 ft | 439 kts | 244° |
| 2026-05-07 01:24 | -30.37538 | -62.70325 | 37643 ft | 439 kts | 245° |
| 2026-05-07 01:25 | -30.41148 | -62.76007 | 37639 ft | 438 kts | 244° |
| 2026-05-07 01:25 | -30.44757 | -62.81696 | 37643 ft | 439 kts | 244° |
| 2026-05-07 01:26 | -30.48371 | -62.87400 | 37640 ft | 439 kts | 244° |
| 2026-05-07 01:26 | -30.51969 | -62.93088 | 37641 ft | 440 kts | 244° |
| 2026-05-07 01:27 | -30.55565 | -62.98779 | 37640 ft | 440 kts | 244° |
| 2026-05-07 01:27 | -30.59185 | -63.04518 | 37645 ft | 442 kts | 244° |
| 2026-05-07 01:28 | -30.62798 | -63.10252 | 37644 ft | 441 kts | 244° |
| 2026-05-07 01:28 | -30.66420 | -63.16008 | 37640 ft | 441 kts | 244° |
| 2026-05-07 01:29 | -30.70028 | -63.21751 | 37638 ft | 442 kts | 244° |
| 2026-05-07 01:29 | -30.73637 | -63.27504 | 37636 ft | 441 kts | 244° |
| 2026-05-07 01:30 | -30.77273 | -63.33310 | 37634 ft | 443 kts | 244° |
| 2026-05-07 01:30 | -30.80833 | -63.39090 | 37636 ft | 443 kts | 245° |
| 2026-05-07 01:31 | -30.84416 | -63.44955 | 37645 ft | 442 kts | 244° |
| 2026-05-07 01:31 | -30.87954 | -63.50748 | 37650 ft | 442 kts | 245° |
| 2026-05-07 01:32 | -30.91517 | -63.56593 | 37660 ft | 442 kts | 245° |
| 2026-05-07 01:32 | -30.95138 | -63.62384 | 37656 ft | 443 kts | 244° |
| 2026-05-07 01:33 | -30.98782 | -63.68174 | 37688 ft | 442 kts | 244° |
| 2026-05-07 01:33 | -31.02414 | -63.73961 | 37685 ft | 443 kts | 244° |
| 2026-05-07 01:34 | -31.06042 | -63.79753 | 37691 ft | 444 kts | 244° |
| 2026-05-07 01:34 | -31.09662 | -63.85542 | 37693 ft | 444 kts | 244° |
| 2026-05-07 01:35 | -31.13320 | -63.91402 | 37682 ft | 445 kts | 244° |
| 2026-05-07 01:35 | -31.16951 | -63.97226 | 37689 ft | 445 kts | 244° |
| 2026-05-07 01:36 | -31.20580 | -64.03056 | 37698 ft | 446 kts | 244° |
| 2026-05-07 01:36 | -31.24214 | -64.08904 | 37715 ft | 445 kts | 244° |
| 2026-05-07 01:37 | -31.27833 | -64.14737 | 37715 ft | 445 kts | 244° |
| 2026-05-07 01:37 | -31.31288 | -64.20690 | 37728 ft | 437 kts | 251° |
| 2026-05-07 01:38 | -31.33711 | -64.27106 | 37718 ft | 431 kts | 256° |
| 2026-05-07 01:38 | -31.36004 | -64.33590 | 37735 ft | 431 kts | 255° |
| 2026-05-07 01:39 | -31.38276 | -64.40027 | 37743 ft | 432 kts | 255° |
| 2026-05-07 01:39 | -31.40573 | -64.46543 | 37755 ft | 433 kts | 255° |
| 2026-05-07 01:40 | -31.42856 | -64.53037 | 37780 ft | 433 kts | 255° |
| 2026-05-07 01:40 | -31.45127 | -64.59506 | 37821 ft | 433 kts | 255° |
| 2026-05-07 01:41 | -31.47410 | -64.66021 | 37860 ft | 433 kts | 256° |
| 2026-05-07 01:41 | -31.49679 | -64.72511 | 37907 ft | 433 kts | 255° |
| 2026-05-07 01:42 | -31.51963 | -64.79055 | 37921 ft | 435 kts | 256° |
| 2026-05-07 01:42 | -31.54247 | -64.85613 | 37908 ft | 436 kts | 256° |
| 2026-05-07 01:43 | -31.56537 | -64.92201 | 37900 ft | 437 kts | 256° |
| 2026-05-07 01:43 | -31.58811 | -64.98753 | 37885 ft | 438 kts | 256° |
| 2026-05-07 01:44 | -31.61095 | -65.05349 | 37869 ft | 438 kts | 255° |
| 2026-05-07 01:44 | -31.63376 | -65.11946 | 37854 ft | 437 kts | 256° |
| 2026-05-07 01:45 | -31.65663 | -65.18580 | 37835 ft | 439 kts | 255° |
| 2026-05-07 01:45 | -31.67933 | -65.25171 | 37817 ft | 439 kts | 256° |
| 2026-05-07 01:46 | -31.70220 | -65.31823 | 37792 ft | 439 kts | 255° |
| 2026-05-07 01:46 | -31.72497 | -65.38461 | 37784 ft | 440 kts | 255° |
| 2026-05-07 01:47 | -31.74763 | -65.45081 | 37764 ft | 440 kts | 255° |
| 2026-05-07 01:47 | -31.77037 | -65.51736 | 37749 ft | 439 kts | 255° |
| 2026-05-07 01:48 | -31.79308 | -65.58396 | 37726 ft | 439 kts | 255° |
| 2026-05-07 01:48 | -31.81556 | -65.64999 | 37731 ft | 438 kts | 255° |
| 2026-05-07 01:49 | -31.83813 | -65.71647 | 37731 ft | 439 kts | 255° |
| 2026-05-07 01:49 | -31.86062 | -65.78283 | 37713 ft | 438 kts | 255° |
| 2026-05-07 01:50 | -31.88314 | -65.84941 | 37712 ft | 439 kts | 255° |
| 2026-05-07 01:50 | -31.90547 | -65.91554 | 37692 ft | 436 kts | 255° |
| 2026-05-07 01:51 | -31.92786 | -65.98202 | 37712 ft | 437 kts | 255° |
| 2026-05-07 01:51 | -31.95001 | -66.04800 | 37702 ft | 437 kts | 255° |
| 2026-05-07 01:52 | -31.97231 | -66.11465 | 37700 ft | 438 kts | 255° |
| 2026-05-07 01:52 | -31.99457 | -66.18128 | 37717 ft | 439 kts | 255° |
| 2026-05-07 01:53 | -32.01681 | -66.24800 | 37719 ft | 439 kts | 255° |
| 2026-05-07 01:53 | -32.03899 | -66.31467 | 37724 ft | 439 kts | 255° |
| 2026-05-07 01:54 | -32.06129 | -66.38183 | 37737 ft | 441 kts | 255° |
| 2026-05-07 01:54 | -32.08350 | -66.44887 | 37733 ft | 441 kts | 255° |
| 2026-05-07 01:55 | -32.10527 | -66.51641 | 37713 ft | 439 kts | 258° |
| 2026-05-07 01:55 | -32.12204 | -66.58562 | 37720 ft | 439 kts | 259° |
| 2026-05-07 01:56 | -32.13837 | -66.65436 | 37721 ft | 439 kts | 259° |
| 2026-05-07 01:56 | -32.15494 | -66.72419 | 37731 ft | 441 kts | 260° |
| 2026-05-07 01:57 | -32.17141 | -66.79376 | 37741 ft | 441 kts | 259° |
| 2026-05-07 01:57 | -32.18786 | -66.86342 | 37757 ft | 442 kts | 259° |
| 2026-05-07 01:58 | -32.20439 | -66.93359 | 37765 ft | 443 kts | 259° |
| 2026-05-07 01:58 | -32.22083 | -67.00356 | 37774 ft | 445 kts | 259° |
| 2026-05-07 01:59 | -32.23728 | -67.07377 | 37773 ft | 446 kts | 259° |
| 2026-05-07 01:59 | -32.25378 | -67.14434 | 37770 ft | 444 kts | 258° |
| 2026-05-07 02:00 | -32.27013 | -67.21450 | 37770 ft | 444 kts | 259° |
| 2026-05-07 02:00 | -32.28646 | -67.28478 | 37763 ft | 444 kts | 259° |
| 2026-05-07 02:01 | -32.30269 | -67.35477 | 37762 ft | 443 kts | 258° |
| 2026-05-07 02:01 | -32.31885 | -67.42471 | 37751 ft | 442 kts | 259° |
| 2026-05-07 02:02 | -32.33490 | -67.49434 | 37748 ft | 443 kts | 259° |
| 2026-05-07 02:02 | -32.35111 | -67.56486 | 37757 ft | 443 kts | 258° |
| 2026-05-07 02:03 | -32.36723 | -67.63515 | 37751 ft | 442 kts | 259° |
| 2026-05-07 02:03 | -32.38322 | -67.70514 | 37778 ft | 443 kts | 259° |
| 2026-05-07 02:04 | -32.39928 | -67.77560 | 37777 ft | 443 kts | 258° |
| 2026-05-07 02:04 | -32.41523 | -67.84577 | 37778 ft | 444 kts | 258° |
| 2026-05-07 02:05 | -32.43121 | -67.91621 | 37776 ft | 443 kts | 259° |
| 2026-05-07 02:05 | -32.44706 | -67.98632 | 37784 ft | 443 kts | 258° |
| 2026-05-07 02:06 | -32.46286 | -68.05643 | 37771 ft | 445 kts | 258° |
| 2026-05-07 02:06 | -32.47882 | -68.12746 | 37783 ft | 444 kts | 258° |
| 2026-05-07 02:07 | -32.49453 | -68.19752 | 37801 ft | 444 kts | 258° |
| 2026-05-07 02:07 | -32.51822 | -68.30360 | 37800 ft | 446 kts | 258° |
| 2026-05-07 02:08 | -32.53401 | -68.37455 | 37812 ft | 447 kts | 257° |
| 2026-05-07 02:08 | -32.54970 | -68.44524 | 37833 ft | 447 kts | 258° |
| 2026-05-07 02:09 | -32.56553 | -68.51679 | 37844 ft | 449 kts | 257° |
| 2026-05-07 02:09 | -32.58127 | -68.58816 | 37838 ft | 451 kts | 257° |
| 2026-05-07 02:10 | -32.59705 | -68.65986 | 37866 ft | 444 kts | 258° |
| 2026-05-07 02:10 | -32.60468 | -68.69454 | 37869 ft | 431 kts | 258° |
| 2026-05-07 02:10 | -32.61213 | -68.72854 | 37866 ft | 424 kts | 258° |
| 2026-05-07 02:11 | -32.62699 | -68.79653 | 37903 ft | 429 kts | 257° |
| 2026-05-07 02:11 | -32.64201 | -68.86544 | 37902 ft | 433 kts | 257° |
| 2026-05-07 02:12 | -32.65693 | -68.93401 | 37938 ft | 429 kts | 257° |
| 2026-05-07 02:12 | -32.67184 | -69.00279 | 37959 ft | 435 kts | 257° |
| 2026-05-07 02:13 | -32.68687 | -69.07232 | 37976 ft | 434 kts | 257° |
| 2026-05-07 02:13 | -32.70173 | -69.14120 | 38078 ft | 434 kts | 257° |
| 2026-05-07 02:14 | -32.71666 | -69.21067 | 38067 ft | 432 kts | 257° |
| 2026-05-07 02:14 | -32.72402 | -69.24494 | 37690 ft | 425 kts | 257° |
| 2026-05-07 02:14 | -32.73132 | -69.27898 | 36870 ft | 428 kts | 258° |
| 2026-05-07 02:15 | -32.73868 | -69.31338 | 36085 ft | 430 kts | 259° |
| 2026-05-07 02:15 | -32.74599 | -69.34766 | 35247 ft | 431 kts | 258° |
| 2026-05-07 02:15 | -32.75329 | -69.38187 | 34486 ft | 431 kts | 258° |
| 2026-05-07 02:15 | -32.76067 | -69.41647 | 33694 ft | 430 kts | 259° |
| 2026-05-07 02:16 | -32.76790 | -69.45043 | 32986 ft | 428 kts | 261° |
| 2026-05-07 02:16 | -32.77510 | -69.48429 | 32109 ft | 420 kts | 259° |
| 2026-05-07 02:16 | -32.78210 | -69.51725 | 31360 ft | 409 kts | 259° |
| 2026-05-07 02:16 | -32.78886 | -69.54909 | 30809 ft | 395 kts | 261° |
| 2026-05-07 02:17 | -32.79562 | -69.58119 | 30444 ft | 408 kts | 259° |
| 2026-05-07 02:17 | -32.80255 | -69.61414 | 29893 ft | 414 kts | 261° |
| 2026-05-07 02:17 | -32.80954 | -69.64724 | 29345 ft | 412 kts | 260° |
| 2026-05-07 02:17 | -32.81645 | -69.68000 | 28889 ft | 409 kts | 261° |
| 2026-05-07 02:18 | -32.82322 | -69.71221 | 28454 ft | 405 kts | 260° |
| 2026-05-07 02:18 | -32.83004 | -69.74461 | 27999 ft | 402 kts | 261° |
| 2026-05-07 02:18 | -32.83681 | -69.77692 | 27534 ft | 401 kts | 259° |
| 2026-05-07 02:18 | -32.84346 | -69.80868 | 27079 ft | 400 kts | 261° |
| 2026-05-07 02:19 | -32.85017 | -69.84077 | 26572 ft | 398 kts | 259° |
| 2026-05-07 02:19 | -32.85685 | -69.87267 | 26114 ft | 395 kts | 261° |
| 2026-05-07 02:19 | -32.86338 | -69.90404 | 25652 ft | 394 kts | 260° |
| 2026-05-07 02:19 | -32.87003 | -69.93595 | 25138 ft | 394 kts | 261° |
| 2026-05-07 02:20 | -32.87644 | -69.96718 | 24645 ft | 393 kts | 261° |
| 2026-05-07 02:20 | -32.88024 | -69.99947 | 24118 ft | 390 kts | 268° |
| 2026-05-07 02:20 | -32.87996 | -70.03152 | 23555 ft | 387 kts | 276° |
| 2026-05-07 02:20 | -32.87734 | -70.06290 | 22980 ft | 384 kts | 276° |
| 2026-05-07 02:21 | -32.87456 | -70.09426 | 22495 ft | 378 kts | 276° |
| 2026-05-07 02:21 | -32.87178 | -70.12528 | 21975 ft | 377 kts | 276° |
| 2026-05-07 02:21 | -32.86897 | -70.15630 | 21444 ft | 378 kts | 277° |
| 2026-05-07 02:21 | -32.86617 | -70.18694 | 20907 ft | 377 kts | 277° |
| 2026-05-07 02:22 | -32.86334 | -70.21769 | 20388 ft | 375 kts | 276° |
| 2026-05-07 02:22 | -32.86050 | -70.24843 | 19848 ft | 375 kts | 277° |
| 2026-05-07 02:22 | -32.85764 | -70.27934 | 19305 ft | 373 kts | 276° |
| 2026-05-07 02:22 | -32.85482 | -70.30953 | 18782 ft | 373 kts | 277° |
| 2026-05-07 02:23 | -32.85197 | -70.34015 | 18229 ft | 373 kts | 277° |
| 2026-05-07 02:23 | -32.84912 | -70.37071 | 17596 ft | 374 kts | 277° |
| 2026-05-07 02:23 | -32.84626 | -70.40135 | 16857 ft | 376 kts | 277° |
| 2026-05-07 02:23 | -32.84336 | -70.43236 | 16140 ft | 376 kts | 276° |
| 2026-05-07 02:24 | -32.84049 | -70.46306 | 15523 ft | 375 kts | 276° |
| 2026-05-07 02:24 | -32.83761 | -70.49367 | 14668 ft | 368 kts | 277° |
| 2026-05-07 02:24 | -32.83484 | -70.52311 | 14372 ft | 357 kts | 277° |
| 2026-05-07 02:24 | -32.83211 | -70.55195 | 13933 ft | 346 kts | 277° |
| 2026-05-07 02:25 | -32.82946 | -70.57996 | 13279 ft | 337 kts | 277° |
| 2026-05-07 02:25 | -32.82688 | -70.60705 | 12727 ft | 326 kts | 277° |
| 2026-05-07 02:25 | -32.82440 | -70.63315 | 12285 ft | 314 kts | 277° |
| 2026-05-07 02:25 | -32.82198 | -70.65858 | 11852 ft | 303 kts | 278° |
| 2026-05-07 02:26 | -32.82164 | -70.68314 | 11444 ft | 296 kts | 260° |
| 2026-05-07 02:26 | -32.82925 | -70.70534 | 11021 ft | 291 kts | 238° |
| 2026-05-07 02:26 | -32.84164 | -70.72356 | 10721 ft | 283 kts | 230° |
| 2026-05-07 02:26 | -32.85545 | -70.74026 | 10384 ft | 284 kts | 227° |
| 2026-05-07 02:27 | -32.86977 | -70.75647 | 10000 ft | 285 kts | 226° |
| 2026-05-07 02:27 | -32.88427 | -70.77254 | 9652 ft | 287 kts | 226° |
| 2026-05-07 02:27 | -32.89897 | -70.78878 | 9181 ft | 284 kts | 226° |
| 2026-05-07 02:27 | -32.91452 | -70.80286 | 8832 ft | 280 kts | 206° |
| 2026-05-07 02:28 | -32.93335 | -70.80839 | 8510 ft | 276 kts | 187° |
| 2026-05-07 02:28 | -32.95248 | -70.80901 | 8222 ft | 282 kts | 181° |
| 2026-05-07 02:28 | -32.97226 | -70.80829 | 7903 ft | 285 kts | 179° |
| 2026-05-07 02:28 | -32.99218 | -70.80725 | 7527 ft | 288 kts | 179° |
| 2026-05-07 02:29 | -33.01223 | -70.80616 | 7097 ft | 289 kts | 179° |
| 2026-05-07 02:29 | -33.03204 | -70.80509 | 6736 ft | 279 kts | 179° |
| 2026-05-07 02:29 | -33.05104 | -70.80407 | 6497 ft | 271 kts | 178° |
| 2026-05-07 02:29 | -33.06985 | -70.80307 | 6328 ft | 266 kts | 179° |
| 2026-05-07 02:30 | -33.08775 | -70.80329 | 6235 ft | 255 kts | 191° |
| 2026-05-07 02:30 | -33.10576 | -70.80614 | 6132 ft | 261 kts | 177° |
| 2026-05-07 02:30 | -33.12350 | -70.80281 | 6014 ft | 261 kts | 171° |
| 2026-05-07 02:30 | -33.14109 | -70.80001 | 5903 ft | 247 kts | 175° |
| 2026-05-07 02:31 | -33.15758 | -70.79859 | 5779 ft | 230 kts | 178° |
| 2026-05-07 02:31 | -33.17319 | -70.79765 | 5678 ft | 212 kts | 178° |
| 2026-05-07 02:31 | -33.18755 | -70.79687 | 5596 ft | 205 kts | 179° |
| 2026-05-07 02:31 | -33.20165 | -70.79613 | 5480 ft | 203 kts | 179° |
| 2026-05-07 02:32 | -33.21578 | -70.79536 | 5180 ft | 199 kts | 179° |
| 2026-05-07 02:32 | -33.22969 | -70.79460 | 4901 ft | 199 kts | 179° |
| 2026-05-07 02:32 | -33.24322 | -70.79387 | 4533 ft | 191 kts | 179° |
| 2026-05-07 02:32 | -33.25622 | -70.79316 | 4179 ft | 186 kts | 179° |
| 2026-05-07 02:33 | -33.26920 | -70.79247 | 3838 ft | 183 kts | 178° |
| 2026-05-07 02:33 | -33.28175 | -70.79177 | 3502 ft | 178 kts | 179° |
| 2026-05-07 02:33 | -33.29374 | -70.79112 | 3186 ft | 168 kts | 179° |
| 2026-05-07 02:33 | -33.30508 | -70.79050 | 2926 ft | 159 kts | 179° |
| 2026-05-07 02:34 | -33.31595 | -70.78992 | 2709 ft | 153 kts | 179° |
| 2026-05-07 02:34 | -33.32662 | -70.78935 | 2508 ft | 150 kts | 179° |
| 2026-05-07 02:34 | -33.33698 | -70.78880 | 2315 ft | 149 kts | 179° |
| 2026-05-07 02:34 | -33.34736 | -70.78825 | 2109 ft | 147 kts | 179° |
| 2026-05-07 02:35 | -33.35743 | -70.78770 | 1919 ft | 145 kts | 178° |
| 2026-05-07 02:35 | -33.36751 | -70.78716 | 1784 ft | 140 kts | 178° |
| 2026-05-07 02:35 | -33.37703 | -70.78669 | 1649 ft | 136 kts | 179° |
| 2026-05-07 02:35 | -33.38618 | -70.78637 | 1570 ft | 120 kts | 178° |
| 2026-05-07 02:36 | -33.39264 | -70.78586 | 1570 ft | 67 kts | 177° |
| 2026-05-07 02:36 | -33.39557 | -70.78569 | 1570 ft | 26 kts | 177° |
| 2026-05-07 02:36 | -33.39742 | -70.78558 | 1570 ft | 26 kts | 178° |
| 2026-05-07 02:36 | -33.39921 | -70.78548 | 1570 ft | 25 kts | 177° |
| 2026-05-07 02:37 | -33.40103 | -70.78539 | 1570 ft | 25 kts | 178° |
| 2026-05-07 02:37 | -33.40279 | -70.78531 | 1570 ft | 17 kts | 178° |
| 2026-05-07 02:37 | -33.40379 | -70.78525 | 1570 ft | 14 kts | 177° |
| 2026-05-07 02:37 | -33.40465 | -70.78572 | 1570 ft | 14 kts | 244° |
| 2026-05-07 02:38 | -33.40434 | -70.78681 | 1570 ft | 15 kts | 318° |
| 2026-05-07 02:38 | -33.40333 | -70.78735 | 1570 ft | 16 kts | 354° |
| 2026-05-07 02:38 | -33.40213 | -70.78745 | 1570 ft | 18 kts | 359° |
| 2026-05-07 02:38 | -33.40098 | -70.78751 | 1570 ft | 16 kts | 356° |
| 2026-05-07 02:39 | -33.40049 | -70.78754 | 1570 ft | 0 kts | 357° |
| 2026-05-07 02:39 | -33.40015 | -70.78756 | 1570 ft | 10 kts | 358° |
| 2026-05-07 02:39 | -33.39947 | -70.78759 | 1570 ft | 10 kts | 357° |
| 2026-05-07 02:39 | -33.39876 | -70.78764 | 1570 ft | 8 kts | 357° |
| 2026-05-07 02:40 | -33.39817 | -70.78767 | 1570 ft | 8 kts | 356° |
| 2026-05-07 02:40 | -33.39768 | -70.78782 | 1570 ft | 7 kts | 320° |
| 2026-05-07 02:40 | -33.39756 | -70.78844 | 1570 ft | 8 kts | 269° |
| 2026-05-07 02:40 | -33.39757 | -70.78921 | 1570 ft | 10 kts | 268° |
| 2026-05-07 02:41 | -33.39778 | -70.78961 | 1570 ft | 5 kts | 200° |
| 2026-05-07 02:41 | -33.39822 | -70.78973 | 1570 ft | 7 kts | 190° |
| 2026-05-07 02:41 | -33.39853 | -70.78979 | 1570 ft | 5 kts | 187° |
| 2026-05-07 02:41 | -33.39876 | -70.78982 | 1570 ft | 0 kts | 188° |
| 2026-05-07 02:42 | -33.39886 | -70.78984 | 1570 ft | 0 kts | 188° |
| 2026-05-07 02:42 | -33.39887 | -70.78984 | 1570 ft | 0 kts | 188° |